Time;durP1;ratioP1;P1;durP2;ratioP2;P2;SDS_P1;SDS_P2;PMS_P1;PMS_P2;Temp;Humidity;BMP_temperature;BMP_pressure;BME280_temperature;BME280_humidity;BME280_pressure;Samples;Min_cycle;Max_cycle;Signal;HPM_P1;HPM_P2
2021/07/05 00:01:42;;;;;;;4.20;1.20;;;;;;;18.19;69.76;96318.66;5092757;28;20205;-66
2021/07/05 00:04:08;;;;;;;1.60;1.50;;;;;;;18.30;70.04;96318.91;5092364;28;20953;-65
2021/07/05 00:06:33;;;;;;;6.80;1.50;;;;;;;18.42;68.90;96320.59;5092304;28;20485;-65
2021/07/05 00:08:59;;;;;;;1.20;1.10;;;;;;;18.90;67.32;96315.47;5092779;28;20203;-66
2021/07/05 00:11:24;;;;;;;3.37;2.43;;;;;;;18.75;67.80;96313.25;5092565;28;20565;-66
2021/07/05 00:13:50;;;;;;;3.17;1.20;;;;;;;18.65;67.96;96318.28;5092386;28;20178;-65
2021/07/05 00:16:16;;;;;;;1.50;1.20;;;;;;;18.82;67.29;96321.09;5092441;28;20223;-64
2021/07/05 00:18:42;;;;;;;3.73;1.33;;;;;;;18.85;67.28;96315.31;5090516;28;20182;-66
2021/07/05 00:21:08;;;;;;;1.60;1.40;;;;;;;18.54;67.93;96315.34;5091969;28;20472;-65
2021/07/05 00:23:33;;;;;;;5.67;1.40;;;;;;;18.40;68.89;96324.50;5090326;28;20186;-65
2021/07/05 00:25:59;;;;;;;1.77;1.50;;;;;;;18.24;70.09;96316.16;5091942;28;20182;-65
2021/07/05 00:28:24;;;;;;;2.73;1.30;;;;;;;18.32;69.24;96312.38;5092069;28;20444;-66
2021/07/05 00:30:50;;;;;;;1.27;1.17;;;;;;;18.31;69.51;96310.75;5092330;28;20190;-65
2021/07/05 00:33:16;;;;;;;1.20;0.97;;;;;;;18.40;69.33;96314.72;5091686;28;20266;-65
2021/07/05 00:35:41;;;;;;;2.00;1.27;;;;;;;18.67;68.57;96306.41;5091825;28;20185;-66
2021/07/05 00:38:07;;;;;;;3.00;1.13;;;;;;;19.18;66.37;96301.56;5091703;28;20564;-65
2021/07/05 00:40:33;;;;;;;1.30;1.20;;;;;;;18.85;67.14;96305.53;5091820;28;20201;-66
2021/07/05 00:42:58;;;;;;;1.90;1.30;;;;;;;19.15;66.13;96304.66;5091790;28;20186;-65
2021/07/05 00:45:26;;;;;;;3.60;1.30;;;;;;;19.19;65.88;96302.38;5091713;28;20241;-65
2021/07/05 00:47:52;;;;;;;2.10;1.30;;;;;;;19.36;65.36;96313.16;5091798;28;20613;-64
2021/07/05 00:50:19;;;;;;;2.10;1.30;;;;;;;19.40;64.84;96310.81;5091284;28;20420;-65
2021/07/05 00:52:47;;;;;;;1.47;1.20;;;;;;;19.59;64.10;96311.53;5083369;28;20770;-67
2021/07/05 00:55:14;;;;;;;3.93;1.37;;;;;;;19.60;63.97;96303.31;5089415;28;20918;-66
2021/07/05 00:57:40;;;;;;;1.10;1.00;;;;;;;19.75;63.62;96316.16;5091728;28;20448;-66
2021/07/05 01:00:08;;;;;;;1.10;1.00;;;;;;;19.74;63.85;96314.53;5091412;28;20420;-66
2021/07/05 01:02:34;;;;;;;2.23;1.20;;;;;;;19.83;63.30;96311.50;5091430;28;20683;-65
2021/07/05 01:04:59;;;;;;;4.90;1.17;;;;;;;19.77;63.10;96314.06;5090783;28;20444;-66
2021/07/05 01:07:25;;;;;;;1.53;1.10;;;;;;;19.65;63.51;96305.28;5091426;28;20209;-66
2021/07/05 01:09:51;;;;;;;2.10;1.00;;;;;;;19.58;63.90;96310.72;5091331;28;20186;-65
2021/07/05 01:12:16;;;;;;;1.20;1.10;;;;;;;19.67;63.58;96308.50;5089957;28;20185;-65
2021/07/05 01:14:43;;;;;;;4.20;1.47;;;;;;;19.44;64.63;96301.38;5089689;28;20181;-65
2021/07/05 01:17:15;;;;;;;1.90;1.40;;;;;;;19.41;64.23;96296.50;5089657;28;20259;-65
2021/07/05 01:19:43;;;;;;;3.73;1.30;;;;;;;19.42;64.00;96288.28;5091057;28;20420;-66
2021/07/05 01:22:10;;;;;;;2.10;1.23;;;;;;;19.59;63.55;96290.25;5089317;28;20494;-64
2021/07/05 01:24:35;;;;;;;1.10;1.00;;;;;;;19.57;64.09;96282.53;5095818;28;20490;-64
2021/07/05 01:27:01;;;;;;;1.20;1.07;;;;;;;19.29;63.86;96283.22;5098904;28;20432;-64
2021/07/05 01:29:27;;;;;;;1.20;1.10;;;;;;;19.62;62.81;96282.63;5096292;28;20653;-64
2021/07/05 01:31:55;;;;;;;1.37;1.23;;;;;;;19.62;63.25;96282.63;5095796;28;20305;-64
2021/07/05 01:34:21;;;;;;;1.40;1.20;;;;;;;19.56;63.25;96283.56;5091165;28;20419;-65
2021/07/05 01:36:47;;;;;;;7.07;1.53;;;;;;;19.43;64.29;96279.28;5091449;28;20478;-65
2021/07/05 01:39:13;;;;;;;2.20;1.30;;;;;;;19.57;63.16;96276.41;5093509;28;20200;-65
2021/07/05 01:41:38;;;;;;;2.00;1.30;;;;;;;19.59;63.28;96279.63;5093924;28;20898;-64
2021/07/05 01:44:04;;;;;;;1.60;1.20;;;;;;;19.29;63.50;96286.69;5094994;28;20202;-65
2021/07/05 01:46:30;;;;;;;1.30;1.20;;;;;;;19.48;63.03;96287.38;5091605;28;20209;-66
2021/07/05 01:48:55;;;;;;;2.30;1.20;;;;;;;19.51;63.69;96269.38;5091348;28;20181;-66
2021/07/05 01:51:21;;;;;;;2.60;1.30;;;;;;;19.26;63.37;96275.72;5087535;28;20280;-64
2021/07/05 01:53:47;;;;;;;2.63;1.10;;;;;;;19.45;63.40;96260.47;5089246;28;20204;-64
2021/07/05 01:56:13;;;;;;;1.63;1.00;;;;;;;19.65;62.58;96252.94;5091179;28;20188;-64
2021/07/05 01:58:39;;;;;;;2.03;1.27;;;;;;;19.45;62.56;96255.97;5090862;28;20269;-64
2021/07/05 02:01:05;;;;;;;3.00;1.33;;;;;;;19.60;62.43;96249.38;5090981;28;20209;-64
2021/07/05 02:03:31;;;;;;;1.67;1.00;;;;;;;19.42;62.58;96261.72;5090742;28;21015;-65
2021/07/05 02:05:57;;;;;;;3.27;1.50;;;;;;;19.55;62.18;96273.16;5090988;28;20430;-64
2021/07/05 02:08:23;;;;;;;3.30;1.30;;;;;;;19.48;62.96;96273.28;5091275;28;20455;-64
2021/07/05 02:10:51;;;;;;;1.57;1.30;;;;;;;19.46;62.43;96270.88;5091741;28;20186;-64
2021/07/05 02:13:25;;;;;;;2.60;1.00;;;;;;;19.33;62.93;96255.16;5091374;28;20197;-64
2021/07/05 02:15:52;;;;;;;1.97;1.50;;;;;;;19.47;62.50;96259.19;5094647;28;20434;-65
2021/07/05 02:18:19;;;;;;;1.10;1.00;;;;;;;19.22;63.33;96253.31;5095091;28;20440;-64
2021/07/05 02:20:45;;;;;;;1.20;1.10;;;;;;;19.22;62.75;96253.31;5092875;28;20518;-64
2021/07/05 02:23:13;;;;;;;4.50;1.33;;;;;;;18.93;63.94;96261.09;5089527;28;21106;-64
2021/07/05 02:25:39;;;;;;;2.50;1.10;;;;;;;19.08;63.50;96258.06;5091051;28;20505;-64
2021/07/05 02:28:13;;;;;;;2.03;1.10;;;;;;;19.09;63.71;96264.97;5090452;28;20480;-65
2021/07/05 02:30:40;;;;;;;3.33;1.03;;;;;;;19.02;63.76;96265.09;5090809;28;21049;-65
2021/07/05 02:33:05;;;;;;;1.80;1.33;;;;;;;18.95;63.75;96257.22;5091511;28;20953;-65
2021/07/05 02:35:34;;;;;;;1.57;1.20;;;;;;;18.92;63.89;96257.66;5091202;28;20443;-65
2021/07/05 02:38:00;;;;;;;1.40;1.30;;;;;;;19.05;63.47;96254.00;5091456;28;20205;-65
2021/07/05 02:40:29;;;;;;;3.00;1.40;;;;;;;19.15;63.07;96254.22;5083573;28;20934;-65
2021/07/05 02:42:55;;;;;;;1.77;1.10;;;;;;;19.26;62.75;96257.94;5093871;28;20753;-65
2021/07/05 02:45:25;;;;;;;2.67;1.53;;;;;;;19.15;62.92;96259.53;5094081;28;20517;-66
2021/07/05 02:47:56;;;;;;;7.30;1.80;;;;;;;19.37;63.05;96253.66;5094406;28;20284;-65
2021/07/05 02:50:22;;;;;;;6.07;1.57;;;;;;;19.41;62.42;96251.34;5094245;28;20434;-65
2021/07/05 02:52:51;;;;;;;1.30;1.10;;;;;;;19.29;62.34;96262.78;5092203;28;20411;-65
2021/07/05 02:55:17;;;;;;;1.47;1.30;;;;;;;19.40;61.97;96261.19;5093509;28;20919;-65
2021/07/05 02:57:44;;;;;;;3.00;1.60;;;;;;;19.32;62.32;96265.00;5094195;28;20448;-65
2021/07/05 03:00:18;;;;;;;1.57;1.47;;;;;;;18.76;64.36;96271.56;5094033;28;20280;-65
2021/07/05 03:02:44;;;;;;;1.57;1.47;;;;;;;19.28;62.77;96266.47;5094114;28;20510;-65
2021/07/05 03:05:11;;;;;;;4.33;3.13;;;;;;;19.23;62.88;96268.22;5093800;28;20459;-65
2021/07/05 03:07:37;;;;;;;1.40;1.30;;;;;;;19.33;62.84;96263.13;5094228;28;20443;-65
2021/07/05 03:10:05;;;;;;;8.23;1.40;;;;;;;19.41;62.56;96262.78;5095386;28;20788;-65
2021/07/05 03:12:31;;;;;;;5.67;1.50;;;;;;;19.22;62.52;96259.41;5096065;28;20435;-66
2021/07/05 03:14:56;;;;;;;1.60;1.33;;;;;;;19.23;63.03;96260.25;5095705;28;20926;-66
2021/07/05 03:17:22;;;;;;;4.60;1.33;;;;;;;19.31;62.94;96273.16;5095649;28;20228;-65
2021/07/05 03:19:48;;;;;;;2.20;1.43;;;;;;;19.23;63.16;96261.03;5093557;28;20190;-65
2021/07/05 03:22:13;;;;;;;2.67;1.57;;;;;;;19.24;63.12;96262.66;5091260;28;20214;-65
2021/07/05 03:24:40;;;;;;;3.77;1.40;;;;;;;19.31;62.84;96250.09;5095473;28;20578;-66
2021/07/05 03:27:06;;;;;;;2.17;1.73;;;;;;;19.41;62.24;96246.81;5093215;28;20614;-66
2021/07/05 03:29:32;;;;;;;2.87;1.37;;;;;;;19.26;63.25;96254.47;5093918;28;20520;-66
2021/07/05 03:32:00;;;;;;;3.10;1.57;;;;;;;19.32;62.81;96258.84;5089773;28;20192;-65
2021/07/05 03:34:25;;;;;;;3.00;1.30;;;;;;;19.12;63.03;96254.69;5105950;28;20213;-66
2021/07/05 03:36:51;;;;;;;1.70;1.40;;;;;;;19.02;64.06;96259.78;5093074;28;20474;-65
2021/07/05 03:39:16;;;;;;;3.43;1.70;;;;;;;18.76;65.42;96267.09;5092811;28;20189;-66
2021/07/05 03:41:42;;;;;;;1.47;1.37;;;;;;;19.28;63.66;96257.72;5079654;28;20178;-65
2021/07/05 03:44:08;;;;;;;4.80;1.30;;;;;;;19.21;63.54;96249.88;5089272;28;20202;-67
2021/07/05 03:46:34;;;;;;;3.73;1.67;;;;;;;19.23;63.53;96252.28;5092388;28;20205;-65
2021/07/05 03:49:00;;;;;;;1.60;1.30;;;;;;;19.38;62.98;96252.63;5093095;28;20531;-65
2021/07/05 03:51:26;;;;;;;1.63;1.53;;;;;;;19.32;63.08;96254.38;5083287;28;20431;-66
2021/07/05 03:53:51;;;;;;;3.10;1.73;;;;;;;19.21;63.82;96246.38;5091633;28;20232;-66
2021/07/05 03:56:17;;;;;;;3.83;1.50;;;;;;;19.26;63.17;96246.50;5092686;28;20181;-65
2021/07/05 03:58:42;;;;;;;1.60;1.47;;;;;;;19.22;63.90;96242.69;5092712;28;20205;-64
2021/07/05 04:01:08;;;;;;;2.57;1.30;;;;;;;19.07;64.18;96235.97;5092452;28;20178;-68
2021/07/05 04:03:34;;;;;;;3.53;1.40;;;;;;;19.39;63.52;96240.97;5092483;28;20200;-65
2021/07/05 04:05:59;;;;;;;1.53;1.40;;;;;;;19.44;62.87;96241.06;5092674;28;20686;-65
2021/07/05 04:08:28;;;;;;;3.27;1.20;;;;;;;19.37;62.68;96232.41;5092112;28;20209;-65
2021/07/05 04:10:54;;;;;;;5.43;1.60;;;;;;;19.44;62.51;96238.41;5091317;28;20534;-65
2021/07/05 04:13:22;;;;;;;2.80;1.47;;;;;;;19.40;62.64;96253.22;5088103;28;20430;-65
2021/07/05 04:15:51;;;;;;;3.73;1.50;;;;;;;19.42;62.76;96247.66;5092580;28;20914;-64
2021/07/05 04:18:16;;;;;;;1.60;1.13;;;;;;;19.54;62.14;96251.09;5092585;28;20464;-64
2021/07/05 04:20:42;;;;;;;5.20;1.43;;;;;;;19.46;62.31;96254.91;5091336;28;20424;-63
2021/07/05 04:23:08;;;;;;;3.10;1.37;;;;;;;19.42;62.40;96264.38;5092029;28;20181;-64
2021/07/05 04:25:34;;;;;;;2.00;1.50;;;;;;;19.40;62.27;96258.53;5092022;28;20205;-66
2021/07/05 04:27:59;;;;;;;2.30;1.60;;;;;;;19.54;62.19;96260.91;5091955;28;20201;-64
2021/07/05 04:30:27;;;;;;;2.13;1.53;;;;;;;19.36;62.50;96267.97;5091749;28;20787;-64
2021/07/05 04:32:53;;;;;;;1.33;1.23;;;;;;;19.38;62.47;96273.88;5090698;28;20573;-64
2021/07/05 04:35:19;;;;;;;2.40;1.87;;;;;;;19.29;62.88;96276.06;5091644;28;20451;-64
2021/07/05 04:37:46;;;;;;;2.47;1.40;;;;;;;19.45;62.31;96274.56;5091723;28;20217;-65
2021/07/05 04:40:16;;;;;;;2.43;1.67;;;;;;;19.46;62.50;96265.56;5091757;28;20427;-64
2021/07/05 04:42:43;;;;;;;3.40;1.73;;;;;;;19.51;62.21;96282.66;5087760;28;20424;-64
2021/07/05 04:45:10;;;;;;;1.77;1.20;;;;;;;19.58;62.12;96278.84;5090232;28;20446;-64
2021/07/05 04:47:36;;;;;;;6.80;1.70;;;;;;;19.65;61.91;96279.50;5091836;28;20439;-64
2021/07/05 04:50:03;;;;;;;3.40;2.20;;;;;;;19.89;61.36;96276.06;5091689;28;20495;-64
2021/07/05 04:52:29;;;;;;;2.03;1.40;;;;;;;19.95;61.33;96275.94;5091607;28;20503;-65
2021/07/05 04:54:54;;;;;;;1.60;1.50;;;;;;;20.05;61.10;96262.00;5090064;28;20884;-65
2021/07/05 04:57:20;;;;;;;1.77;1.37;;;;;;;20.05;60.79;96262.00;5091096;28;20213;-64
2021/07/05 04:59:46;;;;;;;7.43;1.67;;;;;;;20.08;60.80;96266.84;5091366;28;20201;-65
2021/07/05 05:02:11;;;;;;;1.50;1.40;;;;;;;20.09;60.76;96257.03;5090190;28;20565;-64
2021/07/05 05:04:37;;;;;;;4.47;1.50;;;;;;;19.65;61.97;96252.16;5090822;28;20263;-65
2021/07/05 05:07:03;;;;;;;2.23;1.50;;;;;;;20.14;60.49;96248.34;5090889;28;20225;-64
2021/07/05 05:09:28;;;;;;;2.10;1.57;;;;;;;20.21;60.41;96254.31;5078852;28;20190;-65
2021/07/05 05:11:54;;;;;;;4.20;1.57;;;;;;;20.06;60.78;96250.31;5076698;28;20174;-65
2021/07/05 05:14:20;;;;;;;3.87;1.63;;;;;;;20.37;60.13;96242.09;5077306;28;20718;-65
2021/07/05 05:16:47;;;;;;;4.43;1.40;;;;;;;20.25;60.09;96258.94;5076966;28;20281;-65
2021/07/05 05:19:12;;;;;;;1.50;1.40;;;;;;;20.21;60.61;96247.16;5078250;28;20586;-64
2021/07/05 05:21:38;;;;;;;4.63;1.47;;;;;;;20.35;60.19;96250.34;5076533;28;20503;-65
2021/07/05 05:24:04;;;;;;;1.80;1.70;;;;;;;20.26;60.54;96262.41;5077511;28;20216;-65
2021/07/05 05:26:30;;;;;;;2.60;1.97;;;;;;;20.46;59.85;96263.81;5075888;28;20231;-64
2021/07/05 05:28:56;;;;;;;2.33;1.40;;;;;;;20.09;60.73;96279.13;5088183;28;20435;-64
2021/07/05 05:31:22;;;;;;;6.77;2.23;;;;;;;19.93;61.81;96280.66;5077454;28;20173;-65
2021/07/05 05:33:48;;;;;;;3.87;1.97;;;;;;;19.77;62.31;96281.34;5082434;28;20413;-65
2021/07/05 05:36:14;;;;;;;2.57;1.70;;;;;;;20.21;61.18;96275.59;5080942;28;20412;-65
2021/07/05 05:38:45;;;;;;;2.80;1.53;;;;;;;19.85;61.95;96273.00;5075618;28;20214;-64
2021/07/05 05:41:10;;;;;;;5.13;1.50;;;;;;;20.11;61.48;96281.53;5077470;28;20182;-64
2021/07/05 05:43:36;;;;;;;4.47;1.70;;;;;;;20.31;60.34;96290.97;5073618;28;20424;-64
2021/07/05 05:46:02;;;;;;;1.50;1.40;;;;;;;20.40;60.28;96293.03;5077142;28;20265;-64
2021/07/05 05:48:31;;;;;;;2.23;1.40;;;;;;;20.45;60.34;96291.47;5075905;28;20582;-66
2021/07/05 05:50:57;;;;;;;4.20;1.63;;;;;;;20.48;60.23;96286.47;5075471;28;20179;-66
2021/07/05 05:53:23;;;;;;;3.07;1.37;;;;;;;20.21;61.13;96287.06;5088566;28;20420;-65
2021/07/05 05:55:49;;;;;;;2.00;1.43;;;;;;;19.91;62.82;96279.28;5095351;28;20437;-66
2021/07/05 05:58:15;;;;;;;3.43;1.57;;;;;;;20.01;62.88;96284.00;5087392;28;20936;-65
2021/07/05 06:00:42;;;;;;;2.83;1.40;;;;;;;19.82;64.32;96283.28;5084148;28;20182;-64
2021/07/05 06:03:07;;;;;;;4.73;1.43;;;;;;;19.60;64.97;96278.59;5085446;28;20404;-65
2021/07/05 06:05:33;;;;;;;4.63;1.50;;;;;;;19.84;64.58;96266.09;5094680;28;20457;-65
2021/07/05 06:07:58;;;;;;;3.83;1.23;;;;;;;19.19;66.28;96276.63;5096298;28;20200;-66
2021/07/05 06:10:24;;;;;;;5.33;1.40;;;;;;;18.93;67.84;96283.16;5095188;28;20197;-65
2021/07/05 06:12:51;;;;;;;1.87;1.77;;;;;;;18.76;68.81;96275.06;5093763;28;20216;-65
2021/07/05 06:15:19;;;;;;;3.43;2.03;;;;;;;18.75;69.91;96281.38;5087340;28;20422;-65
2021/07/05 06:17:45;;;;;;;12.83;1.93;;;;;;;19.01;68.52;96274.88;5084795;28;20669;-65
2021/07/05 06:20:12;;;;;;;7.23;1.97;;;;;;;19.04;68.66;96268.28;5094285;28;20443;-64
2021/07/05 06:22:56;;;;;;;5.00;2.20;;;;;;;19.16;68.65;96277.09;5089955;28;20483;-66
2021/07/05 06:25:23;;;;;;;1.90;1.73;;;;;;;19.15;67.91;96270.16;5094618;28;21027;-65
2021/07/05 06:27:49;;;;;;;3.53;1.53;;;;;;;19.27;68.55;96262.19;5094964;28;20998;-65
2021/07/05 06:30:15;;;;;;;4.63;1.77;;;;;;;19.34;68.02;96268.19;5093354;28;20411;-65
2021/07/05 06:32:41;;;;;;;3.93;1.90;;;;;;;19.13;69.11;96261.63;5094561;28;20429;-66
2021/07/05 06:35:09;;;;;;;2.67;1.53;;;;;;;19.19;68.20;96266.00;5094278;28;20408;-65
2021/07/05 06:37:34;;;;;;;1.70;1.60;;;;;;;18.88;69.74;96267.09;5094378;28;20543;-67
2021/07/05 06:40:00;;;;;;;3.67;1.57;;;;;;;19.02;68.94;96270.41;5093342;28;20789;-66
2021/07/05 06:42:25;;;;;;;5.43;1.50;;;;;;;18.87;69.41;96271.59;5091410;28;20186;-67
2021/07/05 06:44:51;;;;;;;1.93;1.40;;;;;;;18.78;69.42;96267.66;5094364;28;20617;-66
2021/07/05 06:47:16;;;;;;;1.63;1.43;;;;;;;19.24;68.27;96270.63;5095000;28;20221;-65
2021/07/05 06:49:43;;;;;;;2.70;1.20;;;;;;;19.33;68.43;96277.22;5095341;28;20206;-66
2021/07/05 06:52:09;;;;;;;3.10;1.73;;;;;;;19.01;69.46;96269.56;5087643;28;20648;-66
2021/07/05 06:54:34;;;;;;;3.13;1.73;;;;;;;19.05;69.54;96277.09;5094952;28;20419;-65
2021/07/05 06:57:00;;;;;;;4.60;1.37;;;;;;;19.70;67.22;96273.50;5095290;28;20435;-65
2021/07/05 06:59:26;;;;;;;1.87;1.63;;;;;;;19.60;67.05;96276.72;5095061;28;20181;-65
2021/07/05 07:01:52;;;;;;;4.33;1.97;;;;;;;19.83;66.43;96272.44;5095239;28;20186;-65
2021/07/05 07:04:18;;;;;;;1.53;1.43;;;;;;;20.02;66.23;96269.66;5094070;28;20473;-66
2021/07/05 07:06:48;;;;;;;3.00;1.83;;;;;;;20.07;65.91;96270.56;5094297;28;20201;-66
2021/07/05 07:09:17;;;;;;;2.23;1.70;;;;;;;19.26;68.31;96275.72;5094744;28;20178;-65
2021/07/05 07:11:43;;;;;;;3.10;1.53;;;;;;;19.24;68.36;96277.78;5094925;28;20419;-65
2021/07/05 07:14:09;;;;;;;2.13;1.93;;;;;;;19.84;67.13;96276.72;5093687;28;20738;-65
2021/07/05 07:16:41;;;;;;;3.30;2.03;;;;;;;20.04;66.61;96276.34;5092884;28;20186;-65
2021/07/05 07:19:18;;;;;;;8.53;1.83;;;;;;;19.89;66.91;96271.53;5094463;28;20174;-65
2021/07/05 07:21:50;;;;;;;7.33;1.80;;;;;;;20.04;67.45;96273.69;5087327;28;20454;-66
2021/07/05 07:24:16;;;;;;;2.37;1.90;;;;;;;20.33;66.05;96263.06;5102677;28;20961;-66
2021/07/05 07:26:42;;;;;;;2.10;1.90;;;;;;;20.49;65.84;96274.78;5100984;28;21320;-66
2021/07/05 07:29:08;;;;;;;6.37;2.07;;;;;;;20.52;65.08;96265.53;5099015;28;20473;-65
2021/07/05 07:31:34;;;;;;;1.87;1.60;;;;;;;19.95;66.45;96270.59;5100259;28;20408;-65
2021/07/05 07:34:00;;;;;;;3.10;1.67;;;;;;;19.58;68.55;96272.69;5098199;28;20771;-64
2021/07/05 07:36:26;;;;;;;3.90;1.67;;;;;;;19.97;67.79;96272.22;5094845;28;20174;-65
2021/07/05 07:38:54;;;;;;;2.30;1.70;;;;;;;20.13;67.24;96270.66;5096731;28;20194;-65
2021/07/05 07:41:21;;;;;;;2.50;1.70;;;;;;;19.48;68.74;96266.13;5094390;28;20422;-67
2021/07/05 07:43:48;;;;;;;2.80;1.87;;;;;;;19.70;68.35;96265.53;5093982;28;20482;-66
2021/07/05 07:46:14;;;;;;;3.03;2.60;;;;;;;20.19;66.86;96267.06;5093986;28;20428;-66
2021/07/05 07:48:40;;;;;;;2.00;1.80;;;;;;;20.34;66.14;96275.31;5093858;28;20978;-67
2021/07/05 07:51:05;;;;;;;2.33;2.03;;;;;;;20.02;66.47;96273.13;5086223;28;20182;-64
2021/07/05 07:53:31;;;;;;;3.23;1.53;;;;;;;20.30;65.75;96270.72;5092591;28;20205;-66
2021/07/05 07:55:58;;;;;;;3.10;2.10;;;;;;;19.90;67.29;96267.03;5059267;28;20563;-65
2021/07/05 07:58:25;;;;;;;3.43;1.67;;;;;;;19.92;67.77;96276.38;5094053;28;20255;-66
2021/07/05 08:00:51;;;;;;;4.07;1.40;;;;;;;20.05;67.59;96269.97;5093237;28;20423;-65
2021/07/05 08:03:16;;;;;;;2.80;1.70;;;;;;;20.04;67.09;96275.53;5092257;28;20438;-65
2021/07/05 08:05:42;;;;;;;2.80;2.50;;;;;;;20.19;66.21;96273.19;5093202;28;20227;-65
2021/07/05 08:08:08;;;;;;;5.77;1.60;;;;;;;20.25;65.89;96266.91;5093973;28;20216;-65
2021/07/05 08:10:34;;;;;;;7.43;1.97;;;;;;;20.09;66.57;96273.78;5098351;28;20178;-65
2021/07/05 08:13:02;;;;;;;1.87;1.40;;;;;;;19.98;66.12;96271.97;5091435;28;20428;-66
2021/07/05 08:15:28;;;;;;;3.30;1.80;;;;;;;20.09;65.73;96273.78;5084568;28;20416;-66
2021/07/05 08:17:54;;;;;;;1.73;1.40;;;;;;;19.92;65.92;96287.03;5093099;28;20450;-66
2021/07/05 08:20:22;;;;;;;3.93;1.30;;;;;;;19.67;66.05;96279.28;5089728;28;20420;-65
2021/07/05 08:22:53;;;;;;;2.87;1.63;;;;;;;20.18;65.78;96279.56;5089142;28;20182;-64
2021/07/05 08:25:19;;;;;;;2.03;1.60;;;;;;;20.19;65.44;96275.03;5092552;28;20845;-65
2021/07/05 08:27:45;;;;;;;4.17;1.37;;;;;;;20.47;64.73;96278.75;5093005;28;20440;-65
2021/07/05 08:30:11;;;;;;;4.83;2.00;;;;;;;20.62;64.95;96281.69;5092929;28;20514;-63
2021/07/05 08:32:36;;;;;;;2.13;1.90;;;;;;;20.49;65.14;96279.31;5092716;28;20652;-65
2021/07/05 08:35:05;;;;;;;3.47;1.83;;;;;;;20.75;64.38;96280.59;5092115;28;20447;-64
2021/07/05 08:37:30;;;;;;;2.00;1.70;;;;;;;19.59;67.65;96285.78;5092620;28;20213;-65
2021/07/05 08:39:56;;;;;;;3.87;1.63;;;;;;;20.63;65.61;96282.50;5090319;28;20436;-66
2021/07/05 08:42:23;;;;;;;2.30;1.67;;;;;;;20.77;64.66;96278.50;5092542;28;20622;-65
2021/07/05 08:44:49;;;;;;;2.00;1.80;;;;;;;20.70;65.62;96285.81;5091127;28;20205;-66
2021/07/05 08:47:15;;;;;;;2.00;1.50;;;;;;;20.53;65.55;96272.50;5092209;28;20509;-64
2021/07/05 08:49:41;;;;;;;4.40;1.53;;;;;;;20.60;65.56;96267.03;5091919;28;20416;-65
2021/07/05 08:52:07;;;;;;;2.80;2.10;;;;;;;21.02;64.47;96272.81;5084812;28;20322;-64
2021/07/05 08:54:32;;;;;;;4.13;2.00;;;;;;;20.91;64.25;96263.06;5092673;28;20188;-65
2021/07/05 08:56:58;;;;;;;4.03;1.93;;;;;;;21.09;63.76;96264.66;5091713;28;20205;-65
2021/07/05 08:59:23;;;;;;;1.57;1.40;;;;;;;21.27;63.43;96263.59;5092039;28;20193;-66
2021/07/05 09:01:49;;;;;;;3.10;1.67;;;;;;;21.34;62.91;96266.09;5091432;28;20196;-65
2021/07/05 09:04:15;;;;;;;4.33;2.63;;;;;;;21.21;63.77;96261.91;5091912;28;20809;-65
2021/07/05 09:07:01;;;;;;;3.57;2.03;;;;;;;21.59;63.32;96271.00;5091954;28;20201;-65
2021/07/05 09:09:27;;;;;;;2.83;1.97;;;;;;;21.84;62.26;96263.59;5083744;28;20414;-66
2021/07/05 09:11:52;;;;;;;2.50;2.03;;;;;;;22.02;62.63;96265.16;5092321;28;20749;-65
2021/07/05 09:14:23;;;;;;;2.70;1.90;;;;;;;21.75;62.14;96272.00;5091602;28;20453;-63
2021/07/05 09:16:50;;;;;;;1.83;1.53;;;;;;;21.90;62.74;96263.41;5093263;28;20545;-65
2021/07/05 09:19:16;;;;;;;4.50;2.17;;;;;;;21.55;63.07;96267.19;5091628;28;20516;-65
2021/07/05 09:21:46;;;;;;;2.30;2.07;;;;;;;21.81;62.40;96270.22;5086999;28;20451;-65
2021/07/05 09:24:11;;;;;;;3.53;1.90;;;;;;;22.07;62.16;96273.19;5090907;28;20272;-65
2021/07/05 09:26:44;;;;;;;3.63;2.80;;;;;;;21.79;63.12;96272.34;5091008;28;20573;-66
2021/07/05 09:29:16;;;;;;;3.03;2.63;;;;;;;22.09;62.96;96277.25;5092598;28;20664;-65
2021/07/05 09:31:56;;;;;;;3.00;1.70;;;;;;;21.63;61.75;96285.47;5100135;28;20418;-66
2021/07/05 09:34:25;;;;;;;2.30;1.90;;;;;;;21.63;61.83;96289.97;5094121;28;20416;-65
2021/07/05 09:36:54;;;;;;;1.57;1.30;;;;;;;20.98;63.98;96295.66;5092709;28;20588;-66
2021/07/05 09:39:22;;;;;;;4.10;1.10;;;;;;;21.02;63.49;96291.47;5091091;28;20463;-67
2021/07/05 09:41:49;;;;;;;1.30;1.20;;;;;;;21.02;64.23;96291.47;5095925;28;20447;-65
2021/07/05 09:44:21;;;;;;;1.97;1.27;;;;;;;21.16;63.80;96283.94;5094821;28;20970;-65
2021/07/05 09:46:48;;;;;;;1.40;1.30;;;;;;;21.42;63.20;96283.53;5093233;28;20439;-66
2021/07/05 09:49:26;;;;;;;2.30;1.50;;;;;;;21.42;63.76;96281.66;5092835;28;20455;-64
2021/07/05 09:52:11;;;;;;;6.10;2.60;;;;;;;21.14;64.67;96278.03;5093876;28;20603;-65
2021/07/05 09:54:41;;;;;;;4.80;1.93;;;;;;;21.47;64.20;96264.94;5096034;28;20432;-65
2021/07/05 09:57:25;;;;;;;1.53;1.37;;;;;;;21.56;63.84;96268.78;5095770;28;20442;-65
2021/07/05 09:59:52;;;;;;;2.27;1.87;;;;;;;21.30;64.68;96265.75;5069718;28;20428;-67
2021/07/05 10:02:19;;;;;;;2.00;1.87;;;;;;;21.61;64.33;96263.56;5094880;28;20419;-66
2021/07/05 10:04:46;;;;;;;1.43;1.27;;;;;;;21.85;63.98;96259.88;5095717;28;20467;-65
2021/07/05 10:07:12;;;;;;;5.13;2.23;;;;;;;21.89;63.18;96256.47;5077481;28;20942;-66
2021/07/05 10:09:38;;;;;;;2.87;1.10;;;;;;;21.82;62.77;96263.81;5095318;28;20420;-65
2021/07/05 10:12:26;;;;;;;3.93;3.00;;;;;;;21.54;63.71;96268.25;5095331;28;20460;-65
2021/07/05 10:15:03;;;;;;;3.00;1.93;;;;;;;21.47;64.63;96264.94;5076474;28;20177;-66
2021/07/05 10:17:30;;;;;;;1.20;1.10;;;;;;;21.67;62.06;96263.66;5095324;28;20450;-65
2021/07/05 10:19:56;;;;;;;3.60;1.50;;;;;;;21.51;63.30;96267.91;5095098;28;20420;-64
2021/07/05 10:22:22;;;;;;;2.70;1.73;;;;;;;21.36;63.42;96263.19;5089463;28;20945;-66
2021/07/05 10:24:49;;;;;;;5.77;2.43;;;;;;;21.10;63.53;96254.81;5095371;28;20217;-64
2021/07/05 10:27:15;;;;;;;4.60;2.63;;;;;;;21.24;63.44;96264.09;5095323;28;20465;-65
2021/07/05 10:29:45;;;;;;;2.97;1.70;;;;;;;21.29;63.76;96255.34;5095631;28;20435;-65
2021/07/05 10:32:10;;;;;;;4.87;1.60;;;;;;;21.20;63.36;96249.63;5095332;28;20583;-66
2021/07/05 10:34:37;;;;;;;3.00;1.57;;;;;;;21.34;63.64;96258.09;5097956;28;20602;-65
2021/07/05 10:37:04;;;;;;;2.03;1.47;;;;;;;21.25;64.36;96252.38;5096353;28;20213;-66
2021/07/05 10:39:31;;;;;;;2.23;1.80;;;;;;;21.56;62.85;96252.78;5095047;28;20435;-65
2021/07/05 10:41:57;;;;;;;3.77;1.90;;;;;;;21.67;62.37;96247.66;5094515;28;20898;-66
2021/07/05 10:44:40;;;;;;;2.13;1.70;;;;;;;21.60;62.64;96251.28;5094537;28;20456;-65
2021/07/05 10:47:05;;;;;;;1.70;1.60;;;;;;;21.48;62.32;96245.22;5096156;28;20572;-67
2021/07/05 10:49:31;;;;;;;2.90;1.87;;;;;;;21.86;61.51;96240.16;5097926;28;20423;-67
2021/07/05 10:51:58;;;;;;;4.23;2.00;;;;;;;22.23;60.86;96236.84;5096755;28;20625;-66
2021/07/05 10:54:52;;;;;;;3.20;1.50;;;;;;;22.46;59.52;96227.75;5096537;28;20234;-65
2021/07/05 10:57:45;;;;;;;1.23;1.10;;;;;;;22.60;59.50;96224.69;5094603;28;20451;-66
2021/07/05 11:00:16;;;;;;;4.23;1.50;;;;;;;22.72;58.32;96232.53;5094188;28;20451;-65
2021/07/05 11:02:43;;;;;;;6.13;1.37;;;;;;;22.64;58.08;96233.78;5092409;28;20781;-66
2021/07/05 11:05:37;;;;;;;2.23;1.77;;;;;;;23.00;57.86;96226.06;5092775;28;20456;-69
2021/07/05 11:08:44;;;;;;;2.50;1.27;;;;;;;23.31;55.92;96221.78;5094213;28;20439;-68
2021/07/05 11:11:10;;;;;;;4.80;1.10;;;;;;;23.19;56.37;96228.34;5092016;28;21054;-70
2021/07/05 11:13:37;;;;;;;5.63;4.30;;;;;;;23.65;55.60;96227.81;5086281;28;20428;-68
2021/07/05 11:16:03;;;;;;;3.83;1.40;;;;;;;24.30;54.30;96230.22;5088482;28;20284;-67
2021/07/05 11:18:45;;;;;;;2.13;1.40;;;;;;;24.51;53.26;96221.16;5091505;28;20459;-70
2021/07/05 11:21:16;;;;;;;1.40;1.10;;;;;;;24.93;52.24;96227.38;5078141;28;20609;-66
2021/07/05 11:23:54;;;;;;;3.63;1.00;;;;;;;24.56;52.93;96228.41;5091390;28;20416;-69
2021/07/05 11:26:22;;;;;;;3.30;0.87;;;;;;;24.42;52.16;96236.16;5090964;28;20431;-69
2021/07/05 11:29:15;;;;;;;1.90;1.53;;;;;;;24.24;53.15;96240.13;5091332;28;20440;-69
2021/07/05 11:31:52;;;;;;;1.37;0.90;;;;;;;24.52;53.19;96230.78;5081311;28;20419;-67
2021/07/05 11:34:27;;;;;;;1.60;1.40;;;;;;;24.34;54.08;96242.03;5074556;28;20431;-68
2021/07/05 11:37:16;;;;;;;2.70;1.20;;;;;;;24.62;53.39;96231.91;5074041;28;20443;-69